Time;durP1;ratioP1;P1;durP2;ratioP2;P2;SDS_P1;SDS_P2;PMS_P1;PMS_P2;Temp;Humidity;BMP_temperature;BMP_pressure;BME280_temperature;BME280_humidity;BME280_pressure;Samples;Min_cycle;Max_cycle;Signal;HPM_P1;HPM_P2
2022/08/19 00:01:59;;;;;;;1.13;0.93;;;;;;;21.15;100.00;99791.41;4934956;28;20213;-66
2022/08/19 00:04:32;;;;;;;0.00;0.00;;;20.90;99.90;;;21.13;100.00;99792.41;4932889;28;20209;-66
2022/08/19 00:07:01;;;;;;;0.55;0.55;;;;;;;21.09;100.00;99800.63;4970904;28;20225;-66
2022/08/19 00:09:29;;;;;;;0.20;0.20;;;20.90;99.90;;;21.11;100.00;99789.81;4928403;28;20217;-66
2022/08/19 00:11:58;;;;;;;0.00;0.00;;;;;;;21.08;100.00;99784.56;4948529;28;20209;-66
2022/08/19 00:14:27;;;;;;;0.10;0.10;;;;;;;21.06;100.00;99787.31;4959853;28;20224;-66
2022/08/19 00:16:55;;;;;;;0.10;0.10;;;;;;;21.06;100.00;99789.13;4920397;28;20248;-66
2022/08/19 00:19:24;;;;;;;0.10;0.10;;;20.80;99.90;;;21.04;100.00;99786.50;4917037;28;20216;-66
2022/08/19 00:21:52;;;;;;;0.05;0.05;;;;;;;21.07;100.00;99786.38;4951309;28;20209;-66
2022/08/19 00:24:21;;;;;;;0.00;0.00;;;;;;;21.07;100.00;99786.38;4950788;28;20220;-66
2022/08/19 00:26:50;;;;;;;0.30;0.30;;;20.80;99.90;;;21.03;100.00;99784.75;4919223;28;20237;-66
2022/08/19 00:29:20;;;;;;;0.00;0.00;;;20.90;99.90;;;21.03;100.00;99800.00;4949129;28;20221;-66
2022/08/19 00:31:49;;;;;;;0.00;0.00;;;21.00;99.90;;;21.03;100.00;99806.28;4934239;28;20208;-66
2022/08/19 00:34:18;;;;;;;0.10;0.10;;;;;;;21.03;100.00;99805.41;4936822;28;20236;-66
2022/08/19 00:36:46;;;;;;;0.40;0.40;;;20.90;99.90;;;21.04;100.00;99809.81;4918384;28;20233;-66
2022/08/19 00:39:16;;;;;;;0.38;0.38;;;21.00;99.90;;;21.01;100.00;99802.78;4915580;28;20217;-66
2022/08/19 00:41:48;;;;;;;0.10;0.10;;;20.80;99.90;;;21.01;100.00;99800.09;4931490;28;20225;-66
2022/08/19 00:44:21;;;;;;;0.00;0.00;;;;;;;20.97;100.00;99793.09;4932338;28;20209;-66
2022/08/19 00:46:57;;;;;;;0.43;0.43;;;20.90;99.90;;;20.97;100.00;99782.34;4945336;28;20220;-66
2022/08/19 00:49:36;;;;;;;0.90;0.90;;;20.30;99.90;;;21.01;100.00;99781.28;4963761;28;20225;-66
2022/08/19 00:52:20;;;;;;;0.10;0.10;;;20.70;99.90;;;20.99;100.00;99775.09;4947314;28;20217;-66
2022/08/19 00:54:48;;;;;;;0.10;0.10;;;;;;;20.98;100.00;99786.78;4930714;28;20228;-66
2022/08/19 00:57:30;;;;;;;0.00;0.00;;;20.80;99.90;;;21.00;100.00;99789.41;4956802;28;20217;-66
2022/08/19 01:00:01;;;;;;;0.38;0.38;;;20.90;99.90;;;21.02;100.00;99792.91;4932144;28;20213;-66
2022/08/19 01:02:32;;;;;;;0.47;0.32;;;20.70;99.90;;;21.01;100.00;99783.97;4949226;28;20216;-66
2022/08/19 01:05:06;;;;;;;0.17;0.17;;;20.90;99.90;;;21.02;100.00;99788.38;4931613;28;20229;-66
2022/08/19 01:07:38;;;;;;;0.32;0.28;;;20.80;99.90;;;21.04;100.00;99783.81;4929971;28;20216;-66
2022/08/19 01:10:15;;;;;;;0.03;0.03;;;20.90;99.90;;;21.08;100.00;99784.56;4918374;28;20201;-66
2022/08/19 01:12:44;;;;;;;0.17;0.17;;;;;;;21.05;100.00;99771.25;4933706;28;20205;-66
2022/08/19 01:15:17;;;;;;;0.00;0.00;;;20.80;99.90;;;21.05;100.00;99779.31;4965173;28;20245;-66
2022/08/19 01:17:46;;;;;;;0.20;0.20;;;21.00;99.90;;;21.03;100.00;99781.19;4955958;28;20214;-66
2022/08/19 01:20:19;;;;;;;0.15;0.15;;;20.80;99.90;;;21.05;100.00;99787.38;4963329;28;20205;-66
2022/08/19 01:22:50;;;;;;;0.10;0.10;;;20.80;99.90;;;21.03;100.00;99784.75;4934062;28;20209;-66
2022/08/19 01:25:31;;;;;;;0.00;0.00;;;20.70;99.90;;;21.01;100.00;99785.78;4958801;28;20225;-66
2022/08/19 01:28:00;;;;;;;0.25;0.25;;;;;;;21.02;100.00;99790.22;4926890;28;20700;-66
2022/08/19 01:30:38;;;;;;;0.00;0.00;;;;;;;21.02;100.00;99787.53;4930852;28;20209;-66
2022/08/19 01:33:11;;;;;;;0.10;0.10;;;21.00;99.90;;;21.00;100.00;99797.47;4949557;28;20209;-66
2022/08/19 01:35:39;;;;;;;0.00;0.00;;;;;;;21.01;100.00;99809.97;4928035;28;20233;-66
2022/08/19 01:38:20;;;;;;;0.10;0.10;;;20.80;99.90;;;20.99;100.00;99819.91;4928971;28;20213;-66
2022/08/19 01:40:49;;;;;;;0.38;0.38;;;;;;;20.98;100.00;99821.72;4927876;28;20216;-66
2022/08/19 01:43:18;;;;;;;0.10;0.10;;;;;;;21.00;100.00;99811.78;4932438;28;20213;-66
2022/08/19 01:45:46;;;;;;;0.30;0.30;;;;;;;20.96;100.00;99810.16;4946864;28;20229;-66
2022/08/19 01:48:15;;;;;;;0.10;0.10;;;;;;;20.98;100.00;99802.03;4947669;28;20224;-66
2022/08/19 01:50:43;;;;;;;1.13;1.13;;;;;;;20.94;100.00;99803.09;4927924;28;20214;-66
2022/08/19 01:53:12;;;;;;;0.75;0.50;;;;;;;20.93;100.00;99807.59;4933203;28;20202;-66
2022/08/19 01:55:42;;;;;;;0.00;0.00;;;20.70;99.90;;;20.94;100.00;99801.28;4938873;28;20229;-66
2022/08/19 01:58:20;;;;;;;0.10;0.10;;;20.70;99.90;;;20.93;100.00;99804.03;4931719;28;20206;-66
2022/08/19 02:00:49;;;;;;;0.10;0.10;;;;;;;20.90;100.00;99801.50;4949678;29;20217;-66
2022/08/19 02:03:17;;;;;;;0.05;0.05;;;;;;;20.87;100.00;99826.69;4935101;28;20228;-66
2022/08/19 02:05:45;;;;;;;0.00;0.00;;;;;;;20.89;100.00;99823.94;4937738;28;20225;-66
2022/08/19 02:08:13;;;;;;;0.50;0.50;;;;;;;20.89;100.00;99824.81;4929034;28;20205;-66
2022/08/19 02:10:43;;;;;;;0.10;0.10;;;20.70;99.90;;;20.91;100.00;99828.31;4936234;28;20214;-66
2022/08/19 02:13:13;;;;;;;0.03;0.03;;;20.40;99.90;;;20.89;100.00;99823.94;4936334;28;20688;-66
2022/08/19 02:15:41;;;;;;;0.17;0.17;;;;;;;20.90;100.00;99812.25;4944100;28;20233;-66
2022/08/19 02:18:10;;;;;;;0.05;0.05;;;20.70;99.90;;;20.87;100.00;99825.81;4934683;28;20224;-66
2022/08/19 02:20:41;;;;;;;0.10;0.10;;;20.60;99.90;;;20.88;100.00;99820.38;4936519;28;20213;-66
2022/08/19 02:23:10;;;;;;;0.30;0.30;;;20.40;99.90;;;20.90;100.00;99818.50;4941759;28;20209;-66
2022/08/19 02:25:42;;;;;;;0.00;0.00;;;20.70;99.90;;;20.88;100.00;99808.75;4951590;28;20229;-66
2022/08/19 02:28:11;;;;;;;0.03;0.03;;;;;;;20.88;100.00;99814.13;4951075;28;20220;-66
2022/08/19 02:30:46;;;;;;;0.10;0.10;;;20.60;99.90;;;20.84;100.00;99820.56;4935413;28;20205;-66
2022/08/19 02:33:15;;;;;;;0.00;0.00;;;;;;;20.82;100.00;99827.81;4952569;28;20208;-66
2022/08/19 02:35:45;;;;;;;0.00;0.00;;;20.40;99.90;;;20.83;100.00;99826.88;4932264;28;20247;-66
2022/08/19 02:38:26;;;;;;;0.10;0.10;;;20.70;99.90;;;20.83;100.00;99830.44;4935484;28;20212;-66
2022/08/19 02:41:11;;;;;;;0.08;0.08;;;20.60;99.90;;;20.82;100.00;99828.69;4935293;28;20215;-66
2022/08/19 02:43:40;;;;;;;0.25;0.25;;;;;;;20.84;100.00;99834.00;4955036;28;20220;-66
2022/08/19 02:46:31;;;;;;;0.10;0.10;;;20.60;99.90;;;20.83;100.00;99824.19;4940710;28;20241;-66
2022/08/19 02:49:06;;;;;;;0.10;0.10;;;20.40;99.90;;;20.82;100.00;99831.38;4933689;28;20217;-66
2022/08/19 02:51:41;;;;;;;0.22;0.22;;;20.70;99.90;;;20.83;100.00;99840.31;4950051;28;20220;-66
2022/08/19 02:54:11;;;;;;;0.00;0.00;;;20.60;99.90;;;20.81;100.00;99850.25;4950962;28;20657;-66
2022/08/19 02:56:41;;;;;;;0.75;0.75;;;20.60;99.90;;;20.82;100.00;99849.31;4930622;29;20230;-66
2022/08/19 02:59:11;;;;;;;0.10;0.10;;;;;;;20.82;100.00;99834.06;4954025;28;20209;-66
2022/08/19 03:01:41;;;;;;;0.10;0.10;;;20.60;99.90;;;20.80;100.00;99843.97;4948856;28;20217;-66
2022/08/19 03:04:15;;;;;;;0.10;0.10;;;20.60;99.90;;;20.83;100.00;99848.38;4959392;28;20223;-66
2022/08/19 03:06:46;;;;;;;0.00;0.00;;;20.60;99.90;;;20.84;100.00;99839.38;4920799;28;20232;-66
2022/08/19 03:09:15;;;;;;;0.00;0.00;;;;;;;20.80;100.00;99849.34;4937200;28;20685;-66
2022/08/19 03:11:43;;;;;;;0.00;0.00;;;;;;;20.82;100.00;99841.25;4951957;28;20216;-66
2022/08/19 03:14:12;;;;;;;0.10;0.10;;;;;;;20.80;100.00;99841.28;4918269;28;20220;-66
2022/08/19 03:16:49;;;;;;;0.00;0.00;;;20.60;99.90;;;20.77;100.00;99841.41;4942535;28;20224;-66
2022/08/19 03:19:21;;;;;;;0.00;0.00;;;20.60;99.90;;;20.75;100.00;99856.72;4933658;28;20201;-66
2022/08/19 03:21:50;;;;;;;0.20;0.20;;;;;;;20.74;100.00;99849.63;4935516;28;20213;-66
2022/08/19 03:24:19;;;;;;;0.00;0.00;;;20.90;99.90;;;20.73;100.00;99845.19;4928271;28;20436;-66
2022/08/19 03:26:57;;;;;;;0.32;0.32;;;20.50;99.90;;;20.72;100.00;99854.19;4926337;28;20224;-66
2022/08/19 03:29:27;;;;;;;0.32;0.32;;;20.50;99.90;;;20.71;100.00;99868.53;4937108;28;20205;-66
2022/08/19 03:32:03;;;;;;;0.00;0.00;;;20.50;99.90;;;20.71;100.00;99858.69;4960978;28;20217;-66
2022/08/19 03:34:34;;;;;;;0.10;0.10;;;20.50;99.90;;;20.67;100.00;99862.44;4924346;28;20209;-66
2022/08/19 03:37:12;;;;;;;0.38;0.38;;;20.50;99.90;;;20.69;100.00;99865.94;4933090;28;20751;-66
2022/08/19 03:39:41;;;;;;;0.15;0.15;;;20.50;99.90;;;20.70;100.00;99861.44;4951529;28;20219;-66
2022/08/19 03:42:11;;;;;;;0.10;0.10;;;20.50;99.90;;;20.73;100.00;99863.97;4967409;28;20217;-66
2022/08/19 03:44:59;;;;;;;0.10;0.10;;;;;;;20.72;100.00;99863.09;4934493;28;20254;-66
2022/08/19 03:47:27;;;;;;;0.00;0.00;;;;;;;20.77;100.00;99866.47;4952011;28;20205;-66
2022/08/19 03:49:55;;;;;;;0.00;0.00;;;;;;;20.77;100.00;99860.22;4934903;28;20206;-66
2022/08/19 03:52:24;;;;;;;0.00;0.00;;;;;;;20.81;100.00;99859.19;4930315;28;20716;-66
2022/08/19 03:54:52;;;;;;;0.10;0.10;;;;;;;20.87;100.00;99858.94;4943932;28;20205;-66
2022/08/19 03:57:20;;;;;;;0.10;0.10;;;;;;;20.85;100.00;99847.38;4921806;28;20256;-66
2022/08/19 03:59:54;;;;;;;0.10;0.10;;;;;;;20.84;100.00;99851.00;4914837;28;20584;-66
2022/08/19 04:02:41;;;;;;;0.00;0.00;;;20.60;99.90;;;20.82;100.00;99854.69;4909788;28;20214;-66
2022/08/19 04:05:29;;;;;;;0.10;0.10;;;20.50;99.90;;;20.80;100.00;99848.47;4941477;28;20237;-66
2022/08/19 04:07:58;;;;;;;0.08;0.08;;;;;;;20.76;100.00;99847.72;4959831;28;20211;-66
2022/08/19 04:10:28;;;;;;;0.00;0.00;;;20.50;99.90;;;20.76;100.00;99845.03;4946088;28;20201;-66
2022/08/19 04:12:56;;;;;;;0.00;0.00;;;;;;;20.74;100.00;99850.50;4922089;28;20228;-66
2022/08/19 04:15:24;;;;;;;0.00;0.00;;;;;;;20.72;100.00;99855.06;4950611;28;20608;-66
2022/08/19 04:17:52;;;;;;;0.00;0.00;;;20.50;99.90;;;20.71;100.00;99858.69;4939321;28;20288;-66
2022/08/19 04:20:21;;;;;;;0.00;0.00;;;;;;;20.70;100.00;99859.63;4955365;28;20205;-66
2022/08/19 04:22:49;;;;;;;0.00;0.00;;;;;;;20.69;100.00;99854.31;4892754;28;20221;-66
2022/08/19 04:25:17;;;;;;;0.52;0.52;;;;;;;20.66;100.00;99849.94;4948738;28;20256;-66
2022/08/19 04:27:46;;;;;;;0.00;0.00;;;;;;;20.64;100.00;99859.88;4949193;28;20216;-66
2022/08/19 04:30:14;;;;;;;0.10;0.10;;;20.30;99.90;;;20.65;100.00;99860.75;4946596;28;20224;-66
2022/08/19 04:32:43;;;;;;;0.00;0.00;;;;;;;20.64;100.00;99864.38;4929198;28;20210;-66
2022/08/19 04:35:11;;;;;;;0.15;0.15;;;;;;;20.63;100.00;99860.81;4973535;28;20237;-66
2022/08/19 04:37:45;;;;;;;0.00;0.00;;;;;;;20.59;100.00;99864.56;4947341;28;20225;-66
2022/08/19 04:43:00;;;;;;;0.00;0.00;;;;;;;20.63;100.00;99865.31;4925433;28;20220;-66
2022/08/19 04:45:29;;;;;;;0.10;0.10;;;;;;;20.61;100.00;99861.81;4948539;28;20233;-66
2022/08/19 04:48:11;;;;;;;0.00;0.00;;;;;;;20.61;100.00;99873.44;4937717;28;20213;-66
2022/08/19 04:51:00;;;;;;;0.00;0.00;;;20.40;99.90;;;20.64;100.00;99862.56;4950878;28;20209;-66
2022/08/19 04:53:30;;;;;;;0.10;0.10;;;22.40;99.90;;;20.64;100.00;99873.31;4933796;28;20209;-66
2022/08/19 04:56:10;;;;;;;0.22;0.22;;;20.80;99.90;;;20.67;100.00;99880.34;4942329;28;20229;-66
2022/08/19 04:58:42;;;;;;;0.00;0.00;;;20.40;99.90;;;20.74;100.00;99893.47;4916997;28;20205;-66
2022/08/19 05:01:18;;;;;;;0.00;0.00;;;19.90;99.90;;;20.75;100.00;99899.72;4932257;28;20228;-66
2022/08/19 05:03:47;;;;;;;0.08;0.08;;;;;;;20.81;100.00;99899.50;4915779;28;20201;-66
2022/08/19 05:06:17;;;;;;;0.00;0.00;;;20.60;99.90;;;20.81;100.00;99899.50;4947327;28;20233;-66
2022/08/19 05:08:46;;;;;;;0.00;0.00;;;20.50;99.90;;;20.80;100.00;99897.72;4929991;28;20228;-66
2022/08/19 05:11:30;;;;;;;0.00;0.00;;;20.60;99.90;;;20.80;100.00;99897.72;4916276;28;20216;-66
2022/08/19 05:13:58;;;;;;;0.00;0.00;;;;;;;20.81;100.00;99901.31;4945425;28;20224;-66
2022/08/19 05:16:27;;;;;;;0.10;0.10;;;20.60;99.90;;;20.79;100.00;99898.66;4900352;28;20236;-66
2022/08/19 05:24:30;;;;;;;0.00;0.00;;;;;;;20.88;100.00;99929.69;4932743;28;20204;-66
2022/08/19 05:26:59;;;;;;;0.00;0.00;;;;;;;20.93;100.00;99925.88;4946912;28;20228;-66
2022/08/19 05:29:28;;;;;;;0.00;0.00;;;20.70;99.90;;;20.99;100.00;99919.38;4934814;28;20209;-66
2022/08/19 05:32:08;;;;;;;0.00;0.00;;;20.70;99.90;;;21.00;100.00;99911.25;4964872;28;20213;-66
2022/08/19 05:34:37;;;;;;;0.00;0.00;;;20.70;99.90;;;21.05;100.00;99921.81;4950068;28;20205;-66
2022/08/19 05:37:07;;;;;;;0.10;0.10;;;;;;;21.10;100.00;99933.25;4934807;28;20237;-66
2022/08/19 05:39:37;;;;;;;0.40;0.40;;;20.90;99.90;;;21.12;100.00;99934.03;4925090;28;20213;-67
2022/08/19 05:42:09;;;;;;;1.15;0.63;;;20.80;99.90;;;21.14;100.00;99953.69;4950345;28;20678;-67
2022/08/19 05:44:44;;;;;;;0.08;0.08;;;20.90;99.90;;;21.14;100.00;99960.88;4934651;28;20210;-66
2022/08/19 05:47:14;;;;;;;0.00;0.00;;;21.00;99.90;;;21.19;100.00;99966.94;4935604;28;20204;-66
2022/08/19 05:49:43;;;;;;;0.00;0.00;;;;;;;21.27;100.00;99967.50;4948053;28;20588;-66
2022/08/19 05:52:15;;;;;;;0.10;0.10;;;20.60;99.90;;;21.30;100.00;99980.84;4937817;28;20223;-66
2022/08/19 05:54:47;;;;;;;0.10;0.10;;;21.10;99.90;;;21.33;100.00;99995.03;4934830;28;20216;-66
2022/08/19 05:57:19;;;;;;;0.10;0.10;;;21.00;99.90;;;21.33;100.00;99996.84;4919705;28;20228;-66
2022/08/19 05:59:51;;;;;;;0.10;0.10;;;;;;;21.37;100.00;100009.22;4943899;28;20198;-66
2022/08/19 06:02:30;;;;;;;0.20;0.20;;;21.10;99.90;;;21.38;100.00;100003.78;4947070;28;20212;-66
2022/08/19 06:04:59;;;;;;;0.10;0.10;;;;;;;21.42;100.00;100011.72;4952405;28;20662;-66
2022/08/19 06:07:28;;;;;;;0.00;0.00;;;;;;;21.46;100.00;100018.72;4918421;28;20217;-66
2022/08/19 06:09:56;;;;;;;0.00;0.00;;;;;;;21.49;100.00;100022.16;4941875;28;20217;-66
2022/08/19 06:12:34;;;;;;;0.20;0.20;;;21.30;99.90;;;21.56;100.00;100017.38;4906264;29;20212;-66
2022/08/19 06:15:10;;;;;;;0.00;0.00;;;21.30;99.90;;;21.62;100.00;100035.97;4968407;28;20270;-66
2022/08/19 06:17:39;;;;;;;0.00;0.00;;;21.40;99.90;;;21.70;100.00;100045.47;4939689;28;20224;-66
2022/08/19 06:20:13;;;;;;;0.00;0.00;;;21.20;99.90;;;21.72;100.00;100042.69;4928698;28;20980;-66
2022/08/19 06:22:44;;;;;;;0.00;0.00;;;21.50;99.90;;;21.78;100.00;100047.81;4936648;28;20213;-66
2022/08/19 06:25:14;;;;;;;0.10;0.10;;;21.60;99.90;;;21.89;100.00;100056.31;4923713;28;20228;-66
2022/08/19 06:27:42;;;;;;;0.00;0.00;;;;;;;21.96;100.00;100054.22;4948596;28;20214;-66
2022/08/19 06:30:30;;;;;;;0.00;0.00;;;21.80;99.90;;;22.06;100.00;100055.59;4920264;28;20220;-66
2022/08/19 06:32:59;;;;;;;0.00;0.00;;;;;;;22.16;100.00;100066.88;4920953;28;20217;-66
2022/08/19 06:35:29;;;;;;;0.00;0.00;;;;;;;22.30;100.00;100070.72;4911619;28;20624;-66
2022/08/19 06:37:57;;;;;;;0.00;0.00;;;;;;;22.32;100.00;100071.50;4944811;28;20221;-66
2022/08/19 06:40:27;;;;;;;0.10;0.10;;;;;;;22.34;100.00;100069.63;4920833;28;20201;-66
2022/08/19 06:42:55;;;;;;;0.03;0.03;;;;;;;22.29;100.00;100050.09;4950233;28;20235;-66
2022/08/19 06:45:25;;;;;;;0.40;0.40;;;;;;;22.35;100.00;100049.81;4914075;28;20232;-66
2022/08/19 06:48:04;;;;;;;0.10;0.10;;;22.20;99.90;;;22.37;100.00;100041.66;4929938;28;20205;-66
2022/08/19 06:50:32;;;;;;;0.00;0.00;;;;;;;22.39;100.00;100041.59;4967092;28;20656;-66
2022/08/19 06:53:05;;;;;;;0.00;0.00;;;;;;;22.50;100.00;100061.72;4949785;28;20664;-66
2022/08/19 06:55:33;;;;;;;0.00;0.00;;;;;;;22.52;100.00;100062.53;4920190;28;20247;-66
2022/08/19 06:58:04;;;;;;;0.00;0.00;;;22.20;99.90;;;22.51;100.00;100063.47;4920104;28;20236;-66
2022/08/19 07:00:33;;;;;;;0.00;0.00;;;;;;;22.62;100.00;100061.16;4949814;28;20208;-66
2022/08/19 07:03:02;;;;;;;0.00;0.00;;;;;;;22.63;100.00;100076.38;4940202;28;20204;-67
2022/08/19 07:05:41;;;;;;;0.00;0.00;;;22.50;99.90;;;22.66;100.00;100068.16;4951776;28;20228;-67
2022/08/19 07:08:13;;;;;;;0.00;0.00;;;22.50;99.90;;;22.76;100.00;100065.91;4946482;28;20215;-67
2022/08/19 07:10:45;;;;;;;0.00;0.00;;;22.30;99.90;;;22.76;100.00;100044.31;4917410;28;20216;-68
2022/08/19 07:13:14;;;;;;;0.00;0.00;;;;;;;22.86;100.00;100042.09;4945756;28;20235;-67
2022/08/19 07:15:42;;;;;;;0.00;0.00;;;;;;;22.82;100.00;100035.09;4930478;28;20240;-67
2022/08/19 07:18:10;;;;;;;0.05;0.05;;;;;;;22.78;100.00;100020.00;4917420;28;20220;-67
2022/08/19 07:20:40;;;;;;;0.00;0.00;;;22.60;99.90;;;22.87;100.00;100031.25;4932088;28;20247;-67
2022/08/19 07:23:09;;;;;;;0.10;0.10;;;;;;;22.91;100.00;100032.84;4966873;28;20215;-67
2022/08/19 07:25:43;;;;;;;0.00;0.00;;;;;;;22.97;100.00;100042.47;4918403;28;20243;-67
2022/08/19 07:28:20;;;;;;;0.00;0.00;;;;;;;23.09;100.00;100047.25;4934992;28;20332;-67
2022/08/19 07:30:52;;;;;;;0.00;0.00;;;22.90;99.90;;;23.18;100.00;100043.25;4934700;28;20209;-67
2022/08/19 07:33:20;;;;;;;0.00;0.00;;;;;;;23.11;100.00;100020.22;4934917;28;20204;-67
2022/08/19 07:35:50;;;;;;;0.00;0.00;;;23.00;99.90;;;23.24;100.00;100045.63;4931068;28;20317;-67
2022/08/19 07:38:19;;;;;;;0.00;0.00;;;;;;;23.35;100.00;100045.09;4964083;28;20224;-67
2022/08/19 07:40:47;;;;;;;0.08;0.08;;;;;;;23.41;100.00;100042.13;4932525;28;20216;-67
2022/08/19 07:43:15;;;;;;;0.00;0.00;;;;;;;23.36;100.00;100025.28;4965032;28;20205;-67
2022/08/19 07:45:46;;;;;;;0.00;0.00;;;;;;;23.39;100.00;100027.81;4950982;28;20240;-67
2022/08/19 07:48:15;;;;;;;0.00;0.00;;;;;;;23.42;100.00;100028.56;4933780;28;20586;-67
2022/08/19 07:50:45;;;;;;;0.00;0.00;;;;;;;23.57;100.00;100040.44;4965111;28;20212;-67
2022/08/19 07:53:13;;;;;;;0.00;0.00;;;23.40;99.90;;;23.63;100.00;100029.34;4949018;28;20228;-67
2022/08/19 07:55:41;;;;;;;0.00;0.00;;;;;;;23.62;100.00;100014.09;4946577;28;20728;-67
2022/08/19 07:58:17;;;;;;;0.00;0.00;;;23.40;99.90;;;23.73;100.00;100024.34;4936629;28;20231;-67
2022/08/19 08:00:48;;;;;;;0.00;0.00;;;23.40;99.90;;;23.70;100.00;100011.88;4910101;28;20200;-66
2022/08/19 08:03:19;;;;;;;0.00;0.00;;;23.40;99.90;;;23.68;100.00;99999.41;4911967;28;20214;-67
2022/08/19 08:11:17;;;;;;;0.45;0.45;;;23.60;99.90;;;23.84;100.00;100011.16;4961236;28;20223;-67
2022/08/19 08:13:49;;;;;;;0.00;0.00;;;;;;;23.94;100.00;100005.19;4947971;28;20216;-67
2022/08/19 08:16:31;;;;;;;0.00;0.00;;;23.80;99.90;;;24.21;98.90;100013.66;4913449;28;20263;-67
2022/08/19 08:19:03;;;;;;;0.38;0.38;;;;;;;23.97;100.00;99971.75;4930928;28;20722;-67
2022/08/19 08:21:49;;;;;;;0.00;0.00;;;24.00;99.90;;;24.23;98.85;99986.53;4918803;28;20216;-67
2022/08/19 08:24:18;;;;;;;0.20;0.20;;;24.00;99.90;;;24.26;99.08;99983.69;4908042;28;20205;-67
2022/08/19 08:26:46;;;;;;;0.15;0.15;;;;;;;24.48;98.26;99997.78;4926476;28;20235;-67
2022/08/19 08:29:21;;;;;;;0.03;0.03;;;;;;;24.24;97.62;99956.75;4917505;28;20677;-67
2022/08/19 08:31:53;;;;;;;0.03;0.03;;;;;;;24.51;96.68;99967.88;4939840;28;20209;-67
2022/08/19 08:34:27;;;;;;;0.00;0.00;;;;;;;24.73;95.68;99966.72;4951257;28;20216;-67
2022/08/19 08:36:55;;;;;;;0.00;0.00;;;;;;;24.91;95.56;99979.19;4948325;28;20233;-67
2022/08/19 08:39:23;;;;;;;0.30;0.30;;;;;;;24.77;95.03;99941.25;4934501;28;20232;-67
2022/08/19 08:42:11;;;;;;;0.00;0.00;;;25.00;99.90;;;24.73;95.97;99942.38;4915866;28;20213;-67
2022/08/19 08:44:58;;;;;;;0.00;0.00;;;24.40;99.90;;;24.62;95.05;99910.50;4940503;28;20213;-67
2022/08/19 08:47:36;;;;;;;0.00;0.00;;;24.40;99.90;;;24.60;94.06;99898.03;4931122;28;20223;-66
2022/08/19 08:50:16;;;;;;;0.00;0.00;;;24.80;99.90;;;24.82;92.40;99910.28;4931266;28;20201;-67
2022/08/19 08:52:52;;;;;;;0.00;0.00;;;23.00;99.90;;;24.81;92.31;99891.44;4931046;28;20216;-67
2022/08/19 08:55:26;;;;;;;0.00;0.00;;;24.90;99.90;;;24.82;91.46;99895.88;4946748;28;20228;-66
2022/08/19 08:58:15;;;;;;;0.00;0.00;;;24.50;99.90;;;24.68;91.35;99871.44;4931967;28;20212;-67
2022/08/19 09:00:47;;;;;;;0.00;0.00;;;24.60;99.90;;;25.02;90.91;99906.44;4923039;28;20212;-67
2022/08/19 09:03:27;;;;;;;0.00;0.00;;;25.00;99.90;;;24.79;91.43;99863.59;4923117;28;20208;-67
2022/08/19 09:06:11;;;;;;;0.15;0.15;;;24.60;99.90;;;24.84;91.95;99873.19;4932280;28;20239;-67
2022/08/19 09:08:57;;;;;;;0.10;0.10;;;24.80;99.90;;;25.03;91.16;99889.25;4948444;28;20204;-67
2022/08/19 09:12:00;;;;;;;0.45;0.45;;;24.70;99.90;;;25.15;92.19;99896.63;4940583;28;20580;-67
2022/08/19 09:15:04;;;;;;;0.00;0.00;;;25.10;99.90;;;25.15;92.70;99885.81;4954336;28;20200;-67
2022/08/19 09:17:33;;;;;;;0.17;0.17;;;25.40;99.90;;;25.29;92.25;99887.69;4946012;28;20216;-67
2022/08/19 09:20:10;;;;;;;0.10;0.10;;;25.40;99.90;;;25.50;91.65;99899.03;4936393;28;20680;-67
2022/08/19 09:22:40;;;;;;;0.00;0.00;;;25.30;99.90;;;25.50;90.16;99878.25;4941919;28;20210;-67
2022/08/19 09:25:21;;;;;;;0.10;0.10;;;25.30;99.90;;;25.58;88.66;99866.09;4935972;28;20224;-67
2022/08/19 09:27:57;;;;;;;0.10;0.10;;;25.40;99.90;;;25.69;89.13;99874.44;4946296;28;20205;-67
2022/08/19 09:30:39;;;;;;;0.00;0.00;;;25.60;99.90;;;25.96;87.87;99864.59;4936484;28;20204;-67
2022/08/19 09:33:08;;;;;;;0.10;0.10;;;25.70;99.90;;;25.96;87.30;99837.50;4932406;28;20585;-67
2022/08/19 09:35:37;;;;;;;0.00;0.00;;;;;;;26.06;88.76;99854.06;4951408;28;20239;-67
2022/08/19 09:38:21;;;;;;;0.00;0.00;;;25.70;99.90;;;26.37;84.94;99843.00;4941357;28;20213;-67
2022/08/19 09:40:49;;;;;;;0.00;0.00;;;;;;;26.32;86.21;99822.56;4941305;28;20205;-67
2022/08/19 09:43:17;;;;;;;0.30;0.30;;;25.60;99.90;;;26.41;85.17;99817.44;4931850;28;20690;-67
2022/08/19 09:46:09;;;;;;;0.10;0.10;;;26.30;99.90;;;26.35;83.72;99792.56;4939551;28;20232;-66
2022/08/19 09:48:42;;;;;;;0.08;0.08;;;26.70;99.90;;;26.31;84.91;99786.44;4935656;28;20216;-67
2022/08/19 09:51:19;;;;;;;0.00;0.00;;;26.50;99.90;;;26.58;84.07;99796.47;4936018;28;20216;-67
2022/08/19 09:53:50;;;;;;;0.00;0.00;;;26.90;99.90;;;26.65;83.21;99773.38;4954608;28;20208;-67
2022/08/19 09:56:21;;;;;;;0.22;0.22;;;26.50;99.90;;;26.87;81.93;99775.50;4948715;28;20228;-67
2022/08/19 09:58:51;;;;;;;0.00;0.00;;;26.80;99.90;;;26.99;81.86;99775.56;4949397;28;20221;-67
2022/08/19 10:01:23;;;;;;;0.00;0.00;;;26.80;99.90;;;26.55;82.58;99724.31;4933036;28;20697;-67
2022/08/19 10:03:55;;;;;;;0.05;0.05;;;27.00;99.90;;;27.07;79.88;99753.31;4932349;28;20228;-67
2022/08/19 10:06:31;;;;;;;0.03;0.03;;;27.10;99.90;;;27.00;80.28;99738.44;4947314;28;20232;-67
2022/08/19 10:09:17;;;;;;;0.17;0.17;;;26.50;99.90;;;27.04;78.98;99707.38;4939522;28;20216;-67
2022/08/19 10:12:03;;;;;;;0.00;0.00;;;26.90;99.90;;;27.12;79.20;99704.13;4927946;28;20213;-67
2022/08/19 10:14:33;;;;;;;0.00;0.00;;;;;;;27.45;78.69;99723.47;4962241;28;20220;-67
2022/08/19 10:17:02;;;;;;;0.00;0.00;;;27.00;99.90;;;27.20;77.99;99666.44;4949827;28;20244;-66
2022/08/19 10:19:47;;;;;;;0.47;0.47;;;27.60;99.90;;;27.33;79.94;99710.78;4931994;28;20219;-67
2022/08/19 10:22:23;;;;;;;0.00;0.00;;;27.10;99.90;;;27.72;79.10;99731.50;4922412;28;20215;-67
2022/08/19 10:24:53;;;;;;;0.10;0.00;;;27.40;99.90;;;27.62;79.57;99704.13;4926721;28;20212;-67
2022/08/19 10:27:23;;;;;;;0.00;0.00;;;27.20;99.90;;;27.16;79.25;99641.38;4949914;28;20205;-66
2022/08/19 10:29:53;;;;;;;0.00;0.00;;;27.30;99.90;;;27.18;78.98;99639.41;4952621;28;20234;-67
2022/08/19 10:32:21;;;;;;;0.00;0.00;;;27.10;99.90;;;27.82;77.35;99699.97;4959030;28;20216;-66
2022/08/19 10:35:07;;;;;;;0.00;0.00;;;27.90;99.90;;;28.16;76.10;99692.88;4918802;28;20235;-67
2022/08/19 10:37:37;;;;;;;0.00;0.00;;;27.90;99.90;;;28.11;74.87;99662.44;4967384;28;20216;-67
2022/08/19 10:40:25;;;;;;;0.10;0.10;;;;;;;27.82;74.44;99613.00;4937488;28;20228;-67
2022/08/19 10:42:55;;;;;;;0.10;0.10;;;27.90;99.90;;;28.18;74.21;99636.53;4934096;28;20216;-66
2022/08/19 10:45:25;;;;;;;0.00;0.00;;;;;;;28.09;74.44;99601.03;4935191;28;20235;-66
2022/08/19 10:47:55;;;;;;;0.00;0.00;;;28.10;99.90;;;28.52;72.22;99618.50;4916708;28;20209;-66
2022/08/19 10:53:10;;;;;;;0.10;0.10;;;;;;;28.50;71.88;99563.38;4939253;28;20231;-66
2022/08/19 10:58:26;;;;;;;0.38;0.20;;;27.90;99.90;;;28.14;73.13;99507.28;4968974;28;20215;-66
2022/08/19 11:00:57;;;;;;;0.25;0.25;;;28.60;99.90;;;28.78;71.57;99555.75;4936537;28;20228;-67
2022/08/19 11:03:30;;;;;;;0.00;0.00;;;29.10;99.90;;;28.99;69.70;99537.72;4937103;28;20193;-66
2022/08/19 11:06:05;;;;;;;0.15;0.15;;;28.80;99.90;;;29.07;70.55;99534.38;4960327;28;20229;-66
2022/08/19 11:08:37;;;;;;;0.13;0.13;;;29.10;99.90;;;29.20;69.58;99525.06;4952069;28;20592;-66
2022/08/19 11:11:07;;;;;;;2.00;0.30;;;29.20;99.90;;;29.41;68.55;99533.31;4927637;28;20422;-66
2022/08/19 11:13:39;;;;;;;0.10;0.10;;;28.80;99.90;;;28.78;67.91;99434.19;4952012;28;20221;-66
2022/08/19 11:16:16;;;;;;;0.00;0.00;;;28.90;99.90;;;28.83;68.82;99433.81;4951169;28;20267;-66
2022/08/19 11:18:53;;;;;;;0.20;0.20;;;29.00;99.90;;;28.79;68.31;99405.09;4950420;28;20208;-66
2022/08/19 11:21:26;;;;;;;0.00;0.00;;;27.90;99.90;;;29.08;68.62;99436.25;4953605;28;20251;-66
2022/08/19 11:23:58;;;;;;;0.00;0.00;;;28.60;99.90;;;29.01;69.09;99405.09;4929401;28;20216;-66